Metar Aviation Weather Data EPKT Katowice International

-2°C Temp
-3°C Dewpoint
93% Humidity
Temperature
13 KM/H
8 MPH
7 KTS
50°
North East

Wind Speed
Mostly Cloudy
Conditions
Pressure 1024 (hPa) - 30.24 (in)
Visibility 6.2 (mi) - 10 (km)

Current Conditions
EPKT
Katowice International
Metar :EPKT 150600Z 05007KT 9999 BKN034 M02/M03 Q1024
Sat 15th December 08:00 am

Katowice International
  Metar Aviation API Data Provided by https://www.checkwx.com/ PHP scripts by weather34.com ©2018